Time;durP1;ratioP1;P1;durP2;ratioP2;P2;SDS_P1;SDS_P2;PMS_P1;PMS_P2;Temp;Humidity;BMP_temperature;BMP_pressure;BME280_temperature;BME280_humidity;BME280_pressure;Samples;Min_cycle;Max_cycle;Signal;HPM_P1;HPM_P2
2023/03/17 00:00:40;;;;;;;3.80;2.23;;;;;;;5.79;100.00;101475.03;5107585;28;20687;-70
2023/03/17 00:03:06;;;;;;;5.03;2.67;;;;;;;5.78;100.00;101478.38;5103700;28;20708;-69
2023/03/17 00:05:36;;;;;;;2.70;2.00;;;;;;;5.77;100.00;101473.22;5103885;28;20303;-70
2023/03/17 00:08:23;;;;;;;3.43;2.37;;;;;;;5.75;100.00;101469.75;5090363;28;20244;-71
2023/03/17 00:10:50;;;;;;;4.10;2.57;;;;;;;5.73;100.00;101463.69;5085549;28;20208;-72
2023/03/17 00:13:16;;;;;;;5.20;2.50;;;;;;;5.69;100.00;101461.81;5091164;28;20256;-70
2023/03/17 00:15:43;;;;;;;4.10;2.40;;;;;;;5.71;100.00;101468.69;5111593;28;20199;-70
2023/03/17 00:18:16;;;;;;;4.90;2.97;;;;;;;5.73;100.00;101476.41;5094057;28;20218;-70
2023/03/17 00:20:42;;;;;;;5.00;2.27;;;;;;;5.72;100.00;101467.94;5107139;28;20211;-71
2023/03/17 00:23:14;;;;;;;6.00;2.63;;;;;;;5.70;100.00;101472.03;5110256;28;20668;-70
2023/03/17 00:25:42;;;;;;;3.37;2.43;;;;;;;5.71;100.00;101470.41;5109861;28;20207;-69
2023/03/17 00:28:26;;;;;;;6.47;2.60;;;;;;;5.70;100.00;101466.97;5097607;28;20183;-70
2023/03/17 00:30:55;;;;;;;5.77;3.00;;;;;;;5.70;100.00;101474.59;5105749;27;20226;-70
2023/03/17 00:33:24;;;;;;;5.13;2.83;;;;;;;5.71;100.00;101466.16;5110468;28;20212;-69
2023/03/17 00:35:51;;;;;;;4.23;2.57;;;;;;;5.69;100.00;101457.59;5091257;28;20630;-71
2023/03/17 00:38:19;;;;;;;5.30;2.63;;;;;;;5.68;100.00;101463.50;5109613;28;20191;-70
2023/03/17 00:40:45;;;;;;;5.33;2.60;;;;;;;5.67;100.00;101455.78;5089786;28;20368;-70
2023/03/17 00:43:12;;;;;;;4.47;2.53;;;;;;;5.69;100.00;101455.06;5111351;28;20220;-70
2023/03/17 00:45:39;;;;;;;3.20;2.73;;;;;;;5.72;100.00;101464.50;5087211;28;20608;-71
2023/03/17 00:48:13;;;;;;;5.37;2.73;;;;;;;5.71;100.00;101462.78;5111284;28;20198;-71
2023/03/17 00:50:41;;;;;;;4.50;2.80;;;;;;;5.68;100.00;101460.97;5091949;28;20868;-70
2023/03/17 00:53:16;;;;;;;4.47;2.90;;;;;;;5.66;100.00;101465.06;5110086;28;20248;-70
2023/03/17 00:55:43;;;;;;;3.90;3.00;;;;;;;5.65;100.00;101453.19;5107515;28;20267;-70
2023/03/17 00:58:25;;;;;;;5.13;3.43;;;;;;;5.67;100.00;101446.50;5094234;28;20192;-69
2023/03/17 01:00:52;;;;;;;5.77;3.23;;;;;;;5.67;100.00;101451.56;5108773;28;20207;-71
2023/03/17 01:03:18;;;;;;;4.17;2.73;;;;;;;5.66;100.00;101444.75;5107229;28;20184;-71
2023/03/17 01:05:45;;;;;;;6.00;3.10;;;;;;;5.67;100.00;101435.47;5109629;28;20290;-71
2023/03/17 01:08:10;;;;;;;5.40;2.80;;;;;;;5.65;100.00;101445.56;5107053;28;20192;-70
2023/03/17 01:10:39;;;;;;;5.53;3.17;;;;;;;5.65;100.00;101447.22;5089621;28;20299;-69
2023/03/17 01:13:05;;;;;;;5.20;3.20;;;;;;;5.62;100.00;101447.94;5092160;28;20731;-71
2023/03/17 01:15:32;;;;;;;3.73;2.70;;;;;;;5.60;100.00;101448.66;5110473;28;20187;-70
2023/03/17 01:18:00;;;;;;;4.57;2.77;;;;;;;5.60;100.00;101435.97;5089604;28;20187;-71
2023/03/17 01:20:33;;;;;;;4.80;2.70;;;;;;;5.58;100.00;101427.41;5108660;28;20664;-70
2023/03/17 01:23:00;;;;;;;6.33;2.93;;;;;;;5.57;100.00;101433.28;5093248;28;20294;-70
2023/03/17 01:25:27;;;;;;;5.60;3.40;;;;;;;5.53;100.00;101444.94;5106332;28;20226;-70
2023/03/17 01:27:54;;;;;;;6.27;2.90;;;;;;;5.54;100.00;101451.78;5089662;28;20192;-70
2023/03/17 01:30:27;;;;;;;5.20;3.00;;;;;;;5.52;100.00;101455.06;5098221;28;20274;-70
2023/03/17 01:32:54;;;;;;;5.13;2.57;;;;;;;5.52;100.00;101457.59;5090256;28;20205;-70
2023/03/17 01:35:20;;;;;;;5.93;2.67;;;;;;;5.52;100.00;101465.22;5092620;28;20191;-71
2023/03/17 01:37:46;;;;;;;5.90;2.50;;;;;;;5.51;100.00;101458.38;5090330;28;20385;-71
2023/03/17 01:40:18;;;;;;;4.23;2.67;;;;;;;5.51;100.00;101463.44;5092220;28;20661;-71
2023/03/17 01:42:52;;;;;;;6.37;3.00;;;;;;;5.48;100.00;101451.47;5068787;28;20190;-71
2023/03/17 01:45:55;;;;;;;4.03;2.63;;;;;;;5.46;100.00;101449.66;5105202;28;20208;-72
2023/03/17 01:48:22;;;;;;;3.50;2.70;;;;;;;5.45;100.00;101455.53;5109552;28;20226;-69
2023/03/17 01:50:48;;;;;;;6.17;2.90;;;;;;;5.42;100.00;101456.25;5074074;28;20224;-71
2023/03/17 01:53:15;;;;;;;3.30;2.70;;;;;;;5.39;100.00;101451.03;5093347;28;20192;-71
2023/03/17 01:55:44;;;;;;;6.07;2.63;;;;;;;5.34;100.00;101447.38;5089266;28;20657;-70
2023/03/17 01:58:11;;;;;;;3.77;2.90;;;;;;;5.36;100.00;101440.72;5086981;28;20183;-70
2023/03/17 02:00:38;;;;;;;8.67;3.67;;;;;;;5.32;100.00;101443.03;5091141;28;20254;-70
2023/03/17 02:03:04;;;;;;;3.50;2.97;;;;;;;5.29;100.00;101442.91;5107558;28;20709;-70
2023/03/17 02:05:31;;;;;;;3.87;2.77;;;;;;;5.27;100.00;101442.81;5089626;28;20256;-71
2023/03/17 02:07:58;;;;;;;5.00;2.97;;;;;;;5.25;100.00;101431.69;5089990;28;20536;-70
2023/03/17 02:10:28;;;;;;;5.73;3.00;;;;;;;5.23;100.00;101438.38;5085771;28;20763;-71
2023/03/17 02:12:58;;;;;;;4.40;2.90;;;;;;;5.21;100.00;101441.63;5090070;28;20206;-70
2023/03/17 02:15:34;;;;;;;4.13;2.83;;;;;;;5.20;100.00;101443.28;5090800;28;20220;-71
2023/03/17 02:18:00;;;;;;;5.47;2.90;;;;;;;5.18;100.00;101442.34;5091806;28;20664;-69
2023/03/17 02:20:26;;;;;;;5.77;3.10;;;;;;;5.16;100.00;101438.00;5089399;28;20191;-70
2023/03/17 02:22:53;;;;;;;4.63;2.90;;;;;;;5.12;100.00;101421.75;5106424;28;20191;-71
2023/03/17 02:25:21;;;;;;;5.33;3.10;;;;;;;5.12;100.00;101419.22;5108720;28;20290;-71
2023/03/17 02:27:51;;;;;;;5.13;3.10;;;;;;;5.09;100.00;101428.31;5088153;28;20275;-70
2023/03/17 02:30:21;;;;;;;5.00;2.93;;;;;;;5.05;100.00;101427.31;5084807;28;20196;-70
2023/03/17 02:32:46;;;;;;;3.90;3.07;;;;;;;5.05;100.00;101423.88;5088389;28;20710;-69
2023/03/17 02:35:13;;;;;;;4.63;3.00;;;;;;;5.06;100.00;101418.03;5106983;28;20180;-69
2023/03/17 02:37:42;;;;;;;5.27;2.93;;;;;;;5.06;100.00;101407.88;5106005;28;20192;-71
2023/03/17 02:40:10;;;;;;;5.57;3.33;;;;;;;5.07;100.00;101412.16;5087896;28;20183;-70
2023/03/17 02:42:38;;;;;;;4.23;3.00;;;;;;;5.05;100.00;101406.13;5090557;28;20299;-69
2023/03/17 02:45:05;;;;;;;6.37;3.63;;;;;;;5.04;100.00;101401.84;5107833;28;20214;-69
2023/03/17 02:47:31;;;;;;;8.30;3.43;;;;;;;5.04;100.00;101405.25;5105803;28;20199;-70
2023/03/17 02:49:57;;;;;;;5.00;3.27;;;;;;;5.02;100.00;101401.75;5108490;28;20191;-70
2023/03/17 02:52:24;;;;;;;5.67;3.23;;;;;;;5.03;100.00;101406.06;5103976;28;20294;-69
2023/03/17 02:54:49;;;;;;;4.47;3.07;;;;;;;5.04;100.00;101392.56;5108275;28;20180;-70
2023/03/17 02:57:15;;;;;;;7.57;3.60;;;;;;;5.05;100.00;101401.03;5090020;28;20738;-70
2023/03/17 02:59:41;;;;;;;4.93;3.50;;;;;;;5.03;100.00;101400.09;5108694;28;20188;-70
2023/03/17 03:02:07;;;;;;;4.97;3.27;;;;;;;5.04;100.00;101399.31;5108703;28;20207;-71
2023/03/17 03:04:32;;;;;;;4.13;3.20;;;;;;;5.04;100.00;101397.66;5107141;28;20211;-70
2023/03/17 03:06:58;;;;;;;5.53;3.00;;;;;;;5.03;100.00;101400.09;5105873;28;20210;-69
2023/03/17 03:09:24;;;;;;;5.40;3.60;;;;;;;5.02;100.00;101403.44;5090204;28;20191;-70
2023/03/17 03:11:50;;;;;;;5.40;3.43;;;;;;;5.01;100.00;101399.19;5105841;28;20307;-71
2023/03/17 03:14:15;;;;;;;4.67;3.20;;;;;;;5.02;100.00;101393.28;5108347;28;20276;-70
2023/03/17 03:16:42;;;;;;;5.37;3.50;;;;;;;5.02;100.00;101398.38;5107016;28;20195;-71
2023/03/17 03:19:07;;;;;;;4.37;3.23;;;;;;;5.00;100.00;101408.44;5106786;28;20192;-71
2023/03/17 03:21:34;;;;;;;4.07;2.90;;;;;;;5.01;100.00;101416.94;5089315;28;20269;-70
2023/03/17 03:23:59;;;;;;;4.23;3.27;;;;;;;5.00;100.00;101412.63;5107278;28;20211;-71
2023/03/17 03:26:25;;;;;;;5.87;3.50;;;;;;;5.01;100.00;101420.31;5106036;28;20205;-71
2023/03/17 03:28:50;;;;;;;4.23;3.23;;;;;;;4.99;100.00;101428.66;5107669;28;20270;-71
2023/03/17 03:31:16;;;;;;;7.40;3.43;;;;;;;4.99;100.00;101421.94;5107625;28;20241;-71
2023/03/17 03:33:44;;;;;;;6.77;3.67;;;;;;;4.99;100.00;101415.97;5089082;28;20241;-69
2023/03/17 03:36:10;;;;;;;6.20;3.70;;;;;;;4.96;100.00;101398.03;5090380;28;20429;-71
2023/03/17 03:38:35;;;;;;;5.67;3.77;;;;;;;4.96;100.00;101390.44;5108125;28;20192;-70
2023/03/17 03:41:01;;;;;;;4.40;3.27;;;;;;;4.96;100.00;101382.81;5105940;28;20261;-70
2023/03/17 03:43:26;;;;;;;6.03;3.87;;;;;;;4.93;100.00;101375.06;5108334;28;20738;-71
2023/03/17 03:45:53;;;;;;;4.97;3.63;;;;;;;4.92;100.00;101386.03;5090411;28;20219;-71
2023/03/17 03:48:19;;;;;;;5.50;3.30;;;;;;;4.91;100.00;101399.47;5093356;28;20593;-70
2023/03/17 03:50:45;;;;;;;5.13;3.53;;;;;;;4.91;100.00;101402.91;5110317;28;20769;-70
2023/03/17 03:53:11;;;;;;;4.57;3.17;;;;;;;4.87;100.00;101389.97;5112292;28;20195;-70
2023/03/17 03:55:36;;;;;;;6.00;3.67;;;;;;;4.87;100.00;101378.16;5112949;28;20195;-69
2023/03/17 03:58:01;;;;;;;6.07;3.73;;;;;;;4.84;100.00;101365.31;5111551;28;20187;-69
2023/03/17 04:00:27;;;;;;;5.53;3.03;;;;;;;4.83;100.00;101355.97;5112322;28;20187;-70
2023/03/17 04:02:52;;;;;;;4.67;3.40;;;;;;;4.83;100.00;101344.97;5112306;28;20602;-69
2023/03/17 04:05:18;;;;;;;4.43;3.53;;;;;;;4.80;100.00;101343.16;5093435;28;20228;-70
2023/03/17 04:07:44;;;;;;;6.93;3.53;;;;;;;4.79;100.00;101354.06;5112583;28;20202;-70
2023/03/17 04:10:11;;;;;;;6.47;3.73;;;;;;;4.80;100.00;101339.75;5112002;28;20256;-70
2023/03/17 04:12:38;;;;;;;4.13;3.27;;;;;;;4.78;100.00;101323.59;5093711;28;20223;-70
2023/03/17 04:15:05;;;;;;;7.83;3.90;;;;;;;4.73;100.00;101322.47;5093523;28;20180;-70
2023/03/17 04:17:30;;;;;;;7.27;3.50;;;;;;;4.71;100.00;101307.19;5112216;28;20569;-71
2023/03/17 04:19:56;;;;;;;5.00;3.43;;;;;;;4.70;100.00;101286.81;5111421;28;20179;-70
2023/03/17 04:22:22;;;;;;;4.57;3.50;;;;;;;4.68;100.00;101283.31;5112258;28;20207;-70
2023/03/17 04:24:48;;;;;;;5.13;3.67;;;;;;;4.65;100.00;101276.44;5111838;28;20207;-69
2023/03/17 04:27:14;;;;;;;6.20;3.60;;;;;;;4.66;100.00;101274.78;5111934;28;20271;-71
2023/03/17 04:29:41;;;;;;;5.97;3.63;;;;;;;4.63;100.00;101275.50;5112091;28;20208;-71
2023/03/17 04:32:07;;;;;;;4.60;3.60;;;;;;;4.60;100.00;101277.88;5092581;28;20203;-70
2023/03/17 04:34:33;;;;;;;5.70;3.30;;;;;;;4.58;100.00;101281.13;5093138;28;20176;-70
2023/03/17 04:36:58;;;;;;;4.53;3.90;;;;;;;4.56;100.00;101270.91;5111585;28;20775;-70
2023/03/17 04:39:23;;;;;;;6.70;4.03;;;;;;;4.53;100.00;101296.13;5110923;28;20625;-69
2023/03/17 04:41:49;;;;;;;5.30;3.67;;;;;;;4.53;100.00;101297.78;5108620;28;20227;-69
2023/03/17 04:44:15;;;;;;;5.10;3.73;;;;;;;4.50;100.00;101293.44;5110989;28;20304;-70
2023/03/17 04:46:40;;;;;;;5.37;3.80;;;;;;;4.48;100.00;101300.09;5111821;28;20194;-70
2023/03/17 04:49:07;;;;;;;5.57;3.90;;;;;;;4.45;100.00;101297.41;5108818;28;20230;-70
2023/03/17 04:51:35;;;;;;;5.20;3.83;;;;;;;4.41;100.00;101292.97;5111308;28;20241;-70
2023/03/17 04:54:01;;;;;;;6.17;4.10;;;;;;;4.37;100.00;101311.34;5111130;28;20196;-69
2023/03/17 04:56:26;;;;;;;4.60;4.03;;;;;;;4.32;100.00;101320.38;5111536;28;20198;-70
2023/03/17 04:58:52;;;;;;;6.17;3.90;;;;;;;4.31;100.00;101308.50;5105932;28;20191;-70
2023/03/17 05:01:17;;;;;;;6.27;4.20;;;;;;;4.28;100.00;101302.41;5111294;28;20211;-70
2023/03/17 05:03:44;;;;;;;8.53;4.33;;;;;;;4.22;100.00;101292.81;5084484;28;20249;-71
2023/03/17 05:06:10;;;;;;;6.40;4.00;;;;;;;4.22;100.00;101294.47;5111330;28;20215;-71
2023/03/17 05:08:35;;;;;;;8.73;4.60;;;;;;;4.19;100.00;101294.34;5109142;28;20230;-71
2023/03/17 05:11:01;;;;;;;7.23;4.23;;;;;;;4.16;100.00;101295.03;5092550;28;20238;-70
2023/03/17 05:13:26;;;;;;;6.67;4.13;;;;;;;4.13;100.00;101286.41;5111055;28;20198;-69
2023/03/17 05:15:53;;;;;;;7.27;4.30;;;;;;;4.12;100.00;101270.34;5109845;28;20183;-69
2023/03/17 05:18:21;;;;;;;5.83;3.90;;;;;;;4.10;100.00;101258.38;5111065;28;20645;-71
2023/03/17 05:20:46;;;;;;;6.33;3.93;;;;;;;4.06;100.00;101257.38;5092264;28;20212;-69
2023/03/17 05:23:12;;;;;;;7.00;4.23;;;;;;;4.04;100.00;101263.13;5110836;28;20610;-70
2023/03/17 05:25:39;;;;;;;5.87;3.87;;;;;;;4.01;100.00;101273.97;5094463;28;20821;-71
2023/03/17 05:28:06;;;;;;;5.27;3.63;;;;;;;4.01;100.00;101261.28;5110880;28;20283;-71
2023/03/17 05:30:32;;;;;;;9.30;4.97;;;;;;;3.97;100.00;101253.47;5107778;28;20192;-72
2023/03/17 05:32:59;;;;;;;6.17;4.10;;;;;;;3.92;100.00;101247.31;5110444;28;20676;-70
2023/03/17 05:35:26;;;;;;;7.53;5.43;;;;;;;3.94;100.00;101255.84;5109825;28;20188;-71
2023/03/17 05:37:51;;;;;;;5.30;4.10;;;;;;;3.93;100.00;101239.78;5111248;28;20857;-71
2023/03/17 05:40:17;;;;;;;5.23;4.10;;;;;;;3.95;100.00;101230.59;5110172;28;20240;-70
2023/03/17 05:42:42;;;;;;;7.93;5.63;;;;;;;3.94;100.00;101211.13;5106837;28;20210;-69
2023/03/17 05:45:09;;;;;;;7.73;5.83;;;;;;;3.97;100.00;101207.88;5110076;28;20215;-70
2023/03/17 05:47:35;;;;;;;5.67;4.03;;;;;;;3.98;100.00;101202.00;5109310;28;20244;-71
2023/03/17 05:50:01;;;;;;;7.53;4.40;;;;;;;3.99;100.00;101188.56;5090683;28;20194;-70
2023/03/17 05:52:27;;;;;;;6.33;4.53;;;;;;;4.01;100.00;101190.38;5110167;28;20203;-70
2023/03/17 05:54:53;;;;;;;5.50;3.87;;;;;;;3.99;100.00;101178.41;5109839;28;20207;-70
2023/03/17 05:57:20;;;;;;;8.07;5.10;;;;;;;4.02;100.00;101176.94;5110289;28;20191;-71
2023/03/17 05:59:45;;;;;;;9.80;4.33;;;;;;;4.03;100.00;101175.25;5091234;28;20198;-70
2023/03/17 06:02:12;;;;;;;6.43;4.60;;;;;;;4.06;100.00;101165.28;5110072;28;20251;-71
2023/03/17 06:04:38;;;;;;;6.90;4.60;;;;;;;4.09;100.00;101158.69;5109385;28;20215;-71
2023/03/17 06:07:03;;;;;;;5.03;3.67;;;;;;;4.10;100.00;101159.59;5109103;28;20276;-71
2023/03/17 06:09:30;;;;;;;5.57;4.10;;;;;;;4.11;100.00;101157.13;5109621;28;20672;-70
2023/03/17 06:11:55;;;;;;;7.63;4.70;;;;;;;4.17;100.00;101148.94;5108886;28;20216;-71
2023/03/17 06:14:21;;;;;;;5.93;4.33;;;;;;;4.19;100.00;101148.22;5109338;28;20532;-69
2023/03/17 06:16:46;;;;;;;7.07;4.20;;;;;;;4.19;100.00;101157.50;5091271;28;20248;-70
2023/03/17 06:19:12;;;;;;;4.60;3.93;;;;;;;4.24;100.00;101151.84;5091370;28;20195;-71
2023/03/17 06:21:37;;;;;;;7.60;4.10;;;;;;;4.28;100.00;101147.81;5107773;28;20306;-70
2023/03/17 06:24:03;;;;;;;6.87;4.50;;;;;;;4.31;100.00;101145.41;5091118;28;20187;-69
2023/03/17 06:26:28;;;;;;;8.43;4.47;;;;;;;4.37;100.00;101144.06;5107643;28;20187;-69
2023/03/17 06:28:54;;;;;;;8.47;4.43;;;;;;;4.43;100.00;101131.69;5109590;28;20203;-69
2023/03/17 06:31:20;;;;;;;6.57;4.20;;;;;;;4.45;100.00;101130.09;5105606;28;20203;-69
2023/03/17 06:33:46;;;;;;;6.60;4.37;;;;;;;4.47;100.00;101136.09;5109798;28;20187;-69
2023/03/17 06:36:12;;;;;;;6.80;4.30;;;;;;;4.51;100.00;101140.50;5105870;28;20199;-70
2023/03/17 06:38:38;;;;;;;8.60;5.13;;;;;;;4.60;100.00;101133.34;5109340;28;20205;-71
2023/03/17 06:41:04;;;;;;;5.50;4.43;;;;;;;4.71;100.00;101121.19;5108422;28;20307;-71
2023/03/17 06:43:30;;;;;;;7.33;4.67;;;;;;;4.90;100.00;101111.09;5107948;28;20191;-71
2023/03/17 06:45:56;;;;;;;8.20;4.50;;;;;;;5.05;100.00;101097.44;5108495;28;20223;-70
2023/03/17 06:48:22;;;;;;;6.00;4.43;;;;;;;5.19;100.00;101080.28;5109310;28;20202;-71
2023/03/17 06:50:48;;;;;;;7.30;4.60;;;;;;;5.25;100.00;101078.88;5108622;28;20688;-70
2023/03/17 06:53:15;;;;;;;7.40;4.53;;;;;;;5.20;100.00;101079.50;5106866;28;20187;-71
2023/03/17 06:55:40;;;;;;;5.90;4.40;;;;;;;5.08;100.00;101101.78;5094206;28;20240;-71
2023/03/17 06:58:08;;;;;;;7.30;4.27;;;;;;;5.10;100.00;101103.56;5109263;28;20620;-70
2023/03/17 07:00:33;;;;;;;7.53;4.47;;;;;;;5.04;100.00;101116.00;5108275;28;20202;-70
2023/03/17 07:02:59;;;;;;;6.67;4.30;;;;;;;5.07;100.00;101121.19;5090180;28;20191;-71
2023/03/17 07:05:25;;;;;;;6.43;4.40;;;;;;;5.05;100.00;101129.53;5090540;28;20210;-70
2023/03/17 07:07:51;;;;;;;6.83;4.77;;;;;;;5.18;100.00;101131.84;5091351;28;20757;-70
2023/03/17 07:10:17;;;;;;;7.53;4.63;;;;;;;5.53;100.00;101107.19;5105085;28;20191;-71
2023/03/17 07:12:44;;;;;;;7.37;4.80;;;;;;;5.73;100.00;101078.47;5105317;28;20249;-71
2023/03/17 07:15:11;;;;;;;5.93;4.10;;;;;;;6.01;100.00;101058.50;5108546;28;20548;-72
2023/03/17 07:17:37;;;;;;;7.07;4.67;;;;;;;6.25;100.00;101023.88;5106645;28;20617;-72
2023/03/17 07:20:03;;;;;;;6.03;4.40;;;;;;;6.31;100.00;101008.00;5108070;28;20187;-71
2023/03/17 07:22:31;;;;;;;6.17;4.23;;;;;;;6.38;100.00;100998.13;5089784;28;20930;-71
2023/03/17 07:24:56;;;;;;;7.27;4.00;;;;;;;6.59;100.00;100993.84;5090131;28;20215;-70
2023/03/17 07:27:24;;;;;;;6.30;4.53;;;;;;;6.68;100.00;100972.97;5108345;28;20188;-71
2023/03/17 07:29:50;;;;;;;7.97;4.53;;;;;;;6.83;100.00;100960.81;5108756;28;20198;-70
2023/03/17 07:32:15;;;;;;;6.37;4.13;;;;;;;6.98;100.00;100954.59;5106925;28;20211;-70
2023/03/17 07:34:41;;;;;;;6.77;4.27;;;;;;;7.12;100.00;100934.69;5089587;28;20214;-70
2023/03/17 07:37:06;;;;;;;6.80;4.27;;;;;;;7.25;100.00;100919.00;5107613;28;20554;-71
2023/03/17 07:39:32;;;;;;;8.03;4.53;;;;;;;7.54;100.00;100920.81;5108768;28;20192;-70
2023/03/17 07:41:57;;;;;;;7.77;5.60;;;;;;;7.69;100.00;100883.13;5107006;28;20223;-70
2023/03/17 07:44:24;;;;;;;5.80;4.47;;;;;;;7.86;100.00;100861.53;5089552;28;20901;-70
2023/03/17 07:46:50;;;;;;;9.97;5.80;;;;;;;8.04;100.00;100846.78;5090618;28;20195;-71
2023/03/17 07:49:17;;;;;;;6.70;4.80;;;;;;;8.19;100.00;100814.06;5108608;28;20253;-71
2023/03/17 07:51:43;;;;;;;7.23;4.63;;;;;;;8.49;100.00;100772.47;5105411;28;20218;-70
2023/03/17 07:54:10;;;;;;;6.40;4.70;;;;;;;8.53;100.00;100745.34;5106318;28;20183;-69
2023/03/17 07:56:36;;;;;;;7.10;4.87;;;;;;;8.83;100.00;100754.63;5090040;28;20219;-69
2023/03/17 07:59:02;;;;;;;8.37;4.87;;;;;;;8.86;100.00;100718.09;5089055;28;20192;-71
2023/03/17 08:01:29;;;;;;;5.53;4.50;;;;;;;9.05;100.00;100687.91;5106366;28;20212;-70
2023/03/17 08:03:55;;;;;;;6.97;4.60;;;;;;;9.17;100.00;100695.00;5108125;28;20207;-69
2023/03/17 08:06:21;;;;;;;7.10;4.87;;;;;;;9.02;100.00;100690.41;5108191;28;20226;-70
2023/03/17 08:08:47;;;;;;;8.13;4.87;;;;;;;9.22;100.00;100696.81;5109029;28;20700;-71
2023/03/17 08:11:12;;;;;;;7.10;5.13;;;;;;;9.49;100.00;100694.84;5107099;28;20250;-70
2023/03/17 08:13:38;;;;;;;5.07;4.30;;;;;;;9.67;100.00;100694.38;5107433;28;20559;-70
2023/03/17 08:16:04;;;;;;;6.83;5.10;;;;;;;9.80;96.40;100693.78;5089720;28;20188;-71
2023/03/17 08:18:29;;;;;;;7.23;4.60;;;;;;;10.02;91.86;100680.56;5106710;28;20200;-71
2023/03/17 08:20:55;;;;;;;6.70;4.40;;;;;;;10.35;88.72;100670.97;5106983;28;20222;-70
2023/03/17 08:23:21;;;;;;;10.07;4.90;;;;;;;10.29;88.40;100678.56;5089927;28;20195;-70
2023/03/17 08:25:47;;;;;;;10.13;4.60;;;;;;;10.72;87.29;100678.44;5091813;28;20215;-70
2023/03/17 08:28:14;;;;;;;6.77;4.87;;;;;;;11.11;83.93;100685.03;5104536;28;20206;-69
2023/03/17 08:30:41;;;;;;;8.97;4.77;;;;;;;11.20;89.37;100720.19;5089896;28;20222;-69
2023/03/17 08:33:07;;;;;;;7.27;4.67;;;;;;;10.78;89.21;100738.31;5107973;28;20556;-69
2023/03/17 08:35:34;;;;;;;7.17;4.57;;;;;;;11.21;85.92;100733.03;5092765;28;20192;-69
2023/03/17 08:38:00;;;;;;;6.07;4.37;;;;;;;11.37;78.64;100682.81;5111278;28;20297;-70
2023/03/17 08:40:25;;;;;;;7.33;4.80;;;;;;;11.27;81.08;100724.56;5111767;28;20232;-70
2023/03/17 08:42:51;;;;;;;5.50;4.43;;;;;;;11.07;79.28;100739.63;5091153;28;20188;-69
2023/03/17 08:45:17;;;;;;;8.97;5.20;;;;;;;11.09;79.55;100753.34;5093310;28;20290;-74
2023/03/17 08:47:43;;;;;;;6.43;4.90;;;;;;;11.18;76.13;100755.16;5107298;28;20220;-73
2023/03/17 08:50:14;;;;;;;6.67;4.63;;;;;;;11.27;77.16;100799.75;5090607;28;20192;-71
2023/03/17 08:52:40;;;;;;;8.10;5.03;;;;;;;11.48;77.59;100806.91;5110321;28;20215;-72
2023/03/17 08:55:07;;;;;;;8.47;4.57;;;;;;;11.67;74.58;100799.56;5110051;28;20191;-70
2023/03/17 08:57:34;;;;;;;6.53;4.40;;;;;;;11.69;70.40;100794.41;5092584;28;20748;-71
2023/03/17 09:00:00;;;;;;;7.07;4.10;;;;;;;12.07;67.68;100798.38;5094022;28;20192;-68
2023/03/17 09:02:27;;;;;;;6.73;4.83;;;;;;;12.36;66.93;100802.97;5089724;28;20208;-70
2023/03/17 09:04:53;;;;;;;6.40;4.83;;;;;;;12.52;63.46;100796.31;5111031;28;20302;-72
2023/03/17 09:07:18;;;;;;;8.50;4.70;;;;;;;13.12;61.47;100786.66;5055446;28;20364;-72
2023/03/17 09:09:44;;;;;;;5.53;4.13;;;;;;;13.70;59.27;100786.22;5090461;28;20653;-72
2023/03/17 09:12:10;;;;;;;6.37;4.43;;;;;;;13.57;56.84;100786.09;5109862;28;20231;-71
2023/03/17 09:14:35;;;;;;;5.60;4.40;;;;;;;13.98;55.83;100785.50;5106679;28;20207;-70
2023/03/17 09:17:01;;;;;;;7.73;5.20;;;;;;;14.18;53.93;100775.28;5109014;28;20187;-70
2023/03/17 09:19:26;;;;;;;6.47;4.97;;;;;;;14.24;53.97;100789.09;5092087;28;20198;-70
2023/03/17 09:21:52;;;;;;;5.13;4.63;;;;;;;15.05;52.24;100785.81;5109710;28;20253;-72
2023/03/17 09:24:19;;;;;;;5.90;4.18;;;;;;;16.91;47.37;100765.34;5071606;28;20184;-72
2023/03/17 09:26:44;;;;;;;5.63;4.07;;;;;;;20.20;39.68;100777.19;5091209;28;20210;-72
2023/03/17 09:29:10;;;;;;;5.75;4.47;;;;;;;20.59;37.10;100791.09;5107273;28;20645;-71
2023/03/17 09:31:36;;;;;;;4.85;4.25;;;;;;;22.89;32.85;100806.66;5109799;28;20297;-70
2023/03/17 09:34:03;;;;;;;5.47;4.35;;;;;;;22.76;31.97;100911.53;5107109;28;20210;-70
2023/03/17 09:36:31;;;;;;;6.18;4.32;;;;;;;23.99;31.76;100928.56;5091665;28;20184;-70
2023/03/17 09:38:58;;;;;;;7.07;4.68;;;;;;;22.94;32.07;100932.75;5108335;28;20188;-69
2023/03/17 09:41:45;;;;;;;4.43;3.92;;;;;;;22.48;32.95;100939.31;5108848;28;20684;-70
2023/03/17 09:44:37;;;;;;;5.40;4.30;;;;;;;23.09;31.95;100937.50;5084474;28;20256;-69
2023/03/17 09:47:44;;;;;;;5.38;4.22;;;;;;;23.35;31.21;100941.97;5089951;28;20206;-69
2023/03/17 09:50:14;;;;;;;5.28;4.38;;;;;;;22.08;32.02;100949.94;5095876;28;20206;-70
2023/03/17 09:52:41;;;;;;;5.68;4.03;;;;;;;23.65;31.23;100946.22;5107740;28;20683;-71
2023/03/17 09:55:14;;;;;;;5.80;3.78;;;;;;;25.70;29.19;100932.53;5108371;28;20187;-71
2023/03/17 09:57:40;;;;;;;5.22;4.25;;;;;;;26.25;28.22;100924.09;5109451;28;20283;-70
2023/03/17 10:00:13;;;;;;;5.40;4.35;;;;;;;27.11;26.96;100921.84;5108379;28;20279;-69
2023/03/17 10:02:40;;;;;;;4.85;4.38;;;;;;;25.74;27.81;100916.59;5072841;28;20218;-69
2023/03/17 10:05:12;;;;;;;5.00;4.07;;;;;;;27.28;27.36;100907.94;5091136;28;20207;-69
2023/03/17 10:08:08;;;;;;;6.18;4.03;;;;;;;27.14;26.52;100899.81;5090002;28;20200;-70
2023/03/17 10:10:48;;;;;;;4.72;3.90;;;;;;;26.92;26.99;100907.88;5106183;28;20198;-69
2023/03/17 10:13:31;;;;;;;5.35;4.25;;;;;;;24.90;29.05;100922.59;5107661;28;20637;-70
2023/03/17 10:16:02;;;;;;;5.05;4.30;;;;;;;21.27;34.33;100944.06;5106996;28;20180;-72
2023/03/17 10:18:37;;;;;;;5.35;3.95;;;;;;;22.78;32.96;100934.09;5108555;28;20191;-72
2023/03/17 10:21:05;;;;;;;4.63;4.05;;;;;;;22.82;32.04;100919.16;5087489;28;20580;-72
2023/03/17 10:23:34;;;;;;;4.60;3.90;;;;;;;22.24;32.96;100917.31;5107120;28;20278;-72
2023/03/17 10:26:07;;;;;;;6.23;4.47;;;;;;;21.86;33.24;100926.16;5088533;28;20821;-71
2023/03/17 10:28:37;;;;;;;7.10;3.63;;;;;;;21.88;34.11;100929.56;5108693;28;20199;-72
2023/03/17 10:31:15;;;;;;;6.40;4.30;;;;;;;22.60;33.30;100918.94;5105580;28;20222;-72
2023/03/17 10:33:41;;;;;;;5.03;4.50;;;;;;;22.13;34.18;100920.22;5108182;28;20282;-71
2023/03/17 10:36:09;;;;;;;4.32;3.90;;;;;;;23.07;32.79;100913.16;5107056;28;20195;-71
2023/03/17 10:38:35;;;;;;;6.10;4.03;;;;;;;21.57;33.62;100918.16;5107504;28;20204;-70
2023/03/17 10:41:08;;;;;;;5.07;4.28;;;;;;;24.28;31.47;100907.44;5105710;28;20215;-71
2023/03/17 10:43:44;;;;;;;5.38;4.03;;;;;;;24.18;30.00;100892.97;5089925;28;20235;-71
2023/03/17 10:46:23;;;;;;;4.47;3.97;;;;;;;24.09;31.13;100901.16;5089326;28;20219;-71
2023/03/17 10:48:55;;;;;;;8.70;3.80;;;;;;;25.73;29.04;100880.78;5102432;28;20236;-71
2023/03/17 10:51:31;;;;;;;4.88;3.38;;;;;;;24.22;30.30;100897.19;5105118;28;20700;-70
2023/03/17 10:54:08;;;;;;;4.88;3.72;;;;;;;25.76;30.13;100880.66;5089512;28;20648;-70
2023/03/17 10:56:36;;;;;;;4.35;3.83;;;;;;;27.05;27.57;100881.84;5103453;28;20223;-70
2023/03/17 10:59:07;;;;;;;5.85;3.30;;;;;;;27.78;27.74;100880.84;5107205;28;20190;-70
2023/03/17 11:01:38;;;;;;;5.28;3.50;;;;;;;27.89;26.21;100881.16;5072450;28;20212;-68
2023/03/17 11:04:37;;;;;;;4.43;3.67;;;;;;;27.57;26.23;100874.00;5105496;28;20676;-71
2023/03/17 11:07:11;;;;;;;4.80;3.90;;;;;;;26.57;26.81;100884.97;5106942;28;20817;-69
2023/03/17 11:09:37;;;;;;;5.25;3.50;;;;;;;28.23;26.11;100872.38;5107760;28;20202;-69
2023/03/17 11:12:07;;;;;;;4.93;3.55;;;;;;;29.36;24.92;100869.59;5106635;28;20219;-68
2023/03/17 11:14:34;;;;;;;5.20;3.53;;;;;;;28.24;24.51;100874.06;5087828;28;20208;-68
2023/03/17 11:17:12;;;;;;;4.85;3.50;;;;;;;29.24;25.34;100870.31;5107202;28;20233;-69
2023/03/17 11:19:56;;;;;;;4.57;3.33;;;;;;;31.45;23.67;100860.06;5107269;28;20205;-71
2023/03/17 11:22:34;;;;;;;3.92;3.33;;;;;;;29.52;24.27;100857.22;5102950;28;20217;-71
2023/03/17 11:25:08;;;;;;;3.40;3.05;;;;;;;29.29;24.51;100855.06;5103571;28;20202;-69
2023/03/17 11:27:46;;;;;;;3.92;3.33;;;;;;;27.26;26.02;100865.06;5089873;28;20290;-70